createdAt,value
2022-08-05T00:00:16.126Z,24.12
2022-08-05T00:02:51.631Z,24.10
2022-08-05T00:06:02.008Z,24.23
2022-08-05T00:08:35.216Z,24.16
2022-08-05T00:10:56.045Z,24.18
2022-08-05T00:13:38.101Z,24.30
2022-08-05T00:16:08.499Z,24.10
2022-08-05T00:18:36.115Z,23.69
2022-08-05T00:21:05.220Z,23.51
2022-08-05T00:23:46.556Z,23.43
2022-08-05T00:26:21.006Z,23.65
2022-08-05T00:28:49.283Z,23.90
2022-08-05T00:31:16.313Z,23.95
2022-08-05T00:34:55.636Z,23.81
2022-08-05T00:37:11.069Z,23.13
2022-08-05T00:39:16.139Z,22.84
2022-08-05T00:41:51.750Z,22.88
2022-08-05T00:44:19.035Z,22.77
2022-08-05T00:46:54.093Z,22.67
2022-08-05T00:49:44.739Z,22.51
2022-08-05T00:52:18.855Z,22.47
2022-08-05T00:54:58.322Z,22.36
2022-08-05T00:57:25.406Z,22.43
2022-08-05T00:59:58.489Z,22.40
2022-08-05T01:02:25.044Z,22.39
2022-08-05T01:04:51.817Z,22.34
2022-08-05T01:07:18.395Z,22.22
2022-08-05T01:09:47.372Z,22.23
2022-08-05T01:12:25.116Z,22.16
2022-08-05T01:15:03.903Z,22.13
2022-08-05T01:17:53.755Z,22.22
2022-08-05T01:20:39.692Z,22.21
2022-08-05T01:23:35.532Z,22.19
2022-08-05T01:26:29.614Z,22.25
2022-08-05T01:29:04.319Z,22.16
2022-08-05T01:31:45.225Z,22.07
2022-08-05T01:34:26.880Z,22.00
2022-08-05T01:37:09.563Z,21.97
2022-08-05T01:39:47.837Z,22.05
2022-08-05T01:42:17.288Z,22.05
2022-08-05T01:44:54.092Z,21.93
2022-08-05T01:47:23.947Z,21.86
2022-08-05T01:50:01.960Z,21.84
2022-08-05T01:52:32.252Z,21.80
2022-08-05T01:55:04.487Z,21.80
2022-08-05T01:58:10.810Z,21.83
2022-08-05T02:00:21.184Z,21.79
2022-08-05T02:03:23.992Z,21.77
2022-08-05T02:05:58.016Z,21.81
2022-08-05T02:08:31.031Z,21.68
2022-08-05T02:11:05.236Z,21.66
2022-08-05T02:13:53.466Z,21.65
2022-08-05T02:16:29.133Z,21.69
2022-08-05T02:19:19.609Z,21.71
2022-08-05T02:22:25.939Z,21.68
2022-08-05T02:25:04.841Z,21.75
2022-08-05T02:27:58.082Z,21.78
2022-08-05T02:30:27.835Z,21.82
2022-08-05T02:32:58.981Z,21.80
2022-08-05T02:35:33.274Z,21.66
2022-08-05T02:38:09.312Z,21.60
2022-08-05T02:40:40.950Z,21.46
2022-08-05T02:43:09.461Z,21.66
2022-08-05T02:45:52.764Z,21.58
2022-08-05T02:48:29.527Z,21.53
2022-08-05T02:50:59.957Z,21.59
2022-08-05T02:53:29.156Z,21.43
2022-08-05T02:56:08.404Z,21.42
2022-08-05T02:58:43.729Z,21.49
2022-08-05T03:01:15.414Z,21.53
2022-08-05T03:04:02.968Z,21.40
2022-08-05T03:06:56.563Z,21.35
2022-08-05T03:09:18.050Z,21.34
2022-08-05T03:12:22.569Z,21.53
2022-08-05T03:14:49.127Z,21.57
2022-08-05T03:17:15.661Z,21.65
2022-08-05T03:19:42.343Z,21.69
2022-08-05T03:22:16.252Z,21.57
2022-08-05T03:24:47.293Z,21.47
2022-08-05T03:27:18.589Z,21.40
2022-08-05T03:30:07.278Z,21.59
2022-08-05T03:32:32.113Z,21.62
2022-08-05T03:35:00.779Z,21.44
2022-08-05T03:37:27.646Z,21.49
2022-08-05T03:40:01.896Z,21.56
2022-08-05T03:42:32.281Z,21.51
2022-08-05T03:44:59.808Z,21.51
2022-08-05T03:47:30.505Z,21.61
2022-08-05T03:50:01.905Z,21.55
2022-08-05T03:52:38.672Z,21.43
2022-08-05T03:56:05.995Z,21.25
2022-08-05T03:58:17.873Z,20.98
2022-08-05T04:00:51.410Z,20.96
2022-08-05T04:03:28.412Z,21.21
2022-08-05T04:05:59.199Z,21.28
2022-08-05T04:08:35.105Z,21.25
2022-08-05T04:11:07.405Z,21.27
2022-08-05T04:13:49.850Z,21.32
2022-08-05T04:16:25.113Z,21.33
2022-08-05T04:18:54.384Z,21.25
2022-08-05T04:22:10.079Z,20.98
2022-08-05T04:24:18.741Z,20.96
2022-08-05T04:26:46.581Z,20.99
2022-08-05T04:29:13.247Z,21.18
2022-08-05T04:31:41.031Z,21.24
2022-08-05T04:34:18.526Z,21.08
2022-08-05T04:36:50.116Z,21.19
2022-08-05T04:39:18.362Z,21.21
2022-08-05T04:41:45.827Z,21.17
2022-08-05T04:44:14.809Z,21.25
2022-08-05T04:46:47.656Z,21.29
2022-08-05T04:49:15.231Z,21.18
2022-08-05T04:51:44.033Z,21.12
2022-08-05T04:54:11.993Z,21.15
2022-08-05T04:56:39.145Z,21.25
2022-08-05T04:59:22.950Z,21.29
2022-08-05T05:02:08.338Z,21.29
2022-08-05T05:04:43.867Z,21.27
2022-08-05T05:07:11.629Z,21.12
2022-08-05T05:09:42.361Z,20.88
2022-08-05T05:12:11.697Z,20.91
2022-08-05T05:14:38.376Z,21.07
2022-08-05T05:17:22.755Z,20.95
2022-08-05T05:19:50.236Z,20.88
2022-08-05T05:22:23.839Z,20.72
2022-08-05T05:24:58.859Z,20.64
2022-08-05T05:27:44.499Z,20.66
2022-08-05T05:30:29.644Z,20.67
2022-08-05T05:33:00.368Z,20.75
2022-08-05T05:35:29.126Z,20.90
2022-08-05T05:38:03.420Z,20.92
2022-08-05T05:40:34.338Z,21.16
2022-08-05T05:43:02.173Z,21.14
2022-08-05T05:45:29.211Z,21.06
2022-08-05T05:48:05.438Z,20.93
2022-08-05T05:50:41.323Z,20.79
2022-08-05T05:53:22.147Z,20.62
2022-08-05T05:55:51.425Z,20.59
2022-08-05T05:58:30.390Z,20.55
2022-08-05T06:01:13.121Z,20.66
2022-08-05T06:04:00.833Z,20.52
2022-08-05T06:06:33.025Z,20.52
2022-08-05T06:09:00.060Z,20.56
2022-08-05T06:11:28.938Z,20.62
2022-08-05T06:13:55.956Z,20.69
2022-08-05T06:16:28.597Z,20.78
2022-08-05T06:19:00.916Z,20.82
2022-08-05T06:21:36.921Z,20.92
2022-08-05T06:24:07.672Z,20.92
2022-08-05T06:26:40.057Z,21.10
2022-08-05T06:29:25.490Z,21.09
2022-08-05T06:32:05.522Z,21.06
2022-08-05T06:34:48.266Z,20.90
2022-08-05T06:37:56.014Z,20.88
2022-08-05T06:40:07.488Z,20.98
2022-08-05T06:42:34.042Z,20.89
2022-08-05T06:45:00.592Z,20.96
2022-08-05T06:48:44.294Z,21.03
2022-08-05T06:50:18.952Z,20.98
2022-08-05T06:53:03.515Z,20.88
2022-08-05T06:55:36.607Z,20.93
2022-08-05T06:58:29.565Z,20.77
2022-08-05T07:00:50.847Z,20.77
2022-08-05T07:03:17.958Z,20.75
2022-08-05T07:05:46.259Z,20.80
2022-08-05T07:08:13.519Z,20.94
2022-08-05T07:10:52.798Z,20.86
2022-08-05T07:13:58.548Z,20.90
2022-08-05T07:18:00.458Z,20.92
2022-08-05T07:20:23.040Z,20.99
2022-08-05T07:22:17.679Z,21.05
2022-08-05T07:24:52.719Z,20.93
2022-08-05T07:27:20.326Z,20.97
2022-08-05T07:30:28.053Z,20.95
2022-08-05T07:32:38.393Z,20.96
2022-08-05T07:35:56.723Z,20.93
2022-08-05T07:37:56.199Z,21.02
2022-08-05T07:40:32.243Z,21.01
2022-08-05T07:42:59.894Z,21.15
2022-08-05T07:45:57.059Z,21.27
2022-08-05T07:49:02.031Z,21.56
2022-08-05T07:51:08.612Z,21.72
2022-08-05T07:53:51.675Z,21.91
2022-08-05T07:56:59.828Z,21.65
2022-08-05T07:59:05.149Z,21.52
2022-08-05T08:01:41.676Z,21.32
2022-08-05T08:04:23.028Z,21.34
2022-08-05T08:07:05.610Z,21.57
2022-08-05T08:09:33.856Z,21.93
2022-08-05T08:12:09.346Z,22.39
2022-08-05T08:14:38.017Z,22.51
2022-08-05T08:17:15.736Z,22.26
2022-08-05T08:20:21.924Z,22.42
2022-08-05T08:22:32.360Z,22.64
2022-08-05T08:25:03.182Z,22.92
2022-08-05T08:27:47.911Z,23.10
2022-08-05T08:30:33.954Z,23.21
2022-08-05T08:33:13.909Z,23.30
2022-08-05T08:35:53.778Z,23.42
2022-08-05T08:38:35.454Z,23.54
2022-08-05T08:41:09.615Z,24.01
2022-08-05T08:44:57.933Z,24.35
2022-08-05T08:46:28.532Z,24.12
2022-08-05T08:49:07.751Z,23.57
2022-08-05T08:52:03.909Z,23.94
2022-08-05T08:54:33.836Z,23.83
2022-08-05T08:57:11.588Z,23.65
2022-08-05T08:59:41.825Z,23.99
2022-08-05T09:02:14.642Z,24.02
2022-08-05T09:04:57.867Z,24.01
2022-08-05T09:07:39.494Z,24.45
2022-08-05T09:10:27.842Z,24.81
2022-08-05T09:12:57.741Z,25.29
2022-08-05T09:15:31.873Z,25.76
2022-08-05T09:18:06.325Z,25.86
2022-08-05T09:20:37.712Z,25.84
2022-08-05T09:23:18.794Z,25.83
2022-08-05T09:26:00.818Z,26.21
2022-08-05T09:28:32.329Z,25.17
2022-08-05T09:31:23.213Z,24.49
2022-08-05T09:33:54.831Z,24.39
2022-08-05T09:36:27.324Z,24.33
2022-08-05T09:39:02.533Z,24.03
2022-08-05T09:41:33.142Z,23.84
2022-08-05T09:44:05.053Z,23.92
2022-08-05T09:46:35.040Z,24.15
2022-08-05T09:49:19.095Z,23.95
2022-08-05T09:51:49.915Z,23.87
2022-08-05T09:54:21.417Z,23.74
2022-08-05T09:56:57.565Z,23.52
2022-08-05T09:59:28.046Z,23.56
2022-08-05T10:01:57.826Z,23.63
2022-08-05T10:04:36.028Z,23.65
2022-08-05T10:07:21.052Z,23.79
2022-08-05T10:10:13.972Z,23.77
2022-08-05T10:12:51.795Z,23.57
2022-08-05T10:15:34.393Z,23.51
2022-08-05T10:18:11.912Z,23.35
2022-08-05T10:20:48.743Z,23.33
2022-08-05T10:23:33.980Z,23.44
2022-08-05T10:26:14.044Z,23.32
2022-08-05T10:28:46.554Z,23.25
2022-08-05T10:32:51.847Z,23.38
2022-08-05T10:34:02.517Z,23.31
2022-08-05T10:36:30.704Z,23.15
2022-08-05T10:39:10.361Z,23.16
2022-08-05T10:42:03.342Z,23.07
2022-08-05T10:44:32.333Z,23.03
2022-08-05T10:46:59.237Z,22.96
2022-08-05T10:49:33.026Z,22.99
2022-08-05T10:52:03.250Z,23.24
2022-08-05T10:55:03.258Z,23.22
2022-08-05T10:57:32.113Z,22.99
2022-08-05T11:00:20.488Z,22.95
2022-08-05T11:03:25.599Z,22.80
2022-08-05T11:06:15.888Z,22.83
2022-08-05T11:09:24.261Z,22.99
2022-08-05T11:12:26.392Z,23.14
2022-08-05T11:15:20.143Z,23.32
2022-08-05T11:17:59.346Z,23.02
2022-08-05T11:20:46.480Z,22.65
2022-08-05T11:23:25.931Z,22.37
2022-08-05T11:26:28.101Z,22.03
2022-08-05T11:28:56.572Z,22.07
2022-08-05T11:31:56.713Z,22.26
2022-08-05T11:34:21.177Z,22.20
2022-08-05T11:36:53.246Z,22.14
2022-08-05T11:39:49.253Z,21.99
2022-08-05T11:42:27.967Z,21.70
2022-08-05T11:45:03.007Z,21.40
2022-08-05T11:47:49.701Z,21.42
2022-08-05T11:50:17.688Z,21.36
2022-08-05T11:52:46.077Z,21.28
2022-08-05T11:55:15.445Z,21.31
2022-08-05T11:58:10.289Z,21.04
2022-08-05T12:00:38.461Z,20.92
2022-08-05T12:03:28.710Z,20.83
2022-08-05T12:06:03.147Z,20.70
2022-08-05T12:08:33.189Z,20.70
2022-08-05T12:11:06.107Z,20.58
2022-08-05T12:13:49.496Z,20.45
2022-08-05T12:16:19.241Z,20.38
2022-08-05T12:18:49.623Z,20.30
2022-08-05T12:21:32.864Z,20.20
2022-08-05T12:24:09.168Z,20.30
2022-08-05T12:26:38.923Z,20.36
2022-08-05T12:29:09.508Z,20.40
2022-08-05T12:31:44.903Z,20.27
2022-08-05T12:34:20.500Z,20.31
2022-08-05T12:36:49.798Z,20.32
2022-08-05T12:39:17.671Z,20.12
2022-08-05T12:41:48.697Z,20.02
2022-08-05T12:44:21.611Z,19.93
2022-08-05T12:46:59.657Z,19.70
2022-08-05T12:50:03.897Z,19.47
2022-08-05T12:52:39.072Z,19.38
2022-08-05T12:55:25.643Z,19.27
2022-08-05T12:58:49.985Z,19.20
2022-08-05T13:02:00.690Z,19.23
2022-08-05T13:03:45.415Z,19.27
2022-08-05T13:06:14.434Z,19.38
2022-08-05T13:08:50.861Z,19.40
2022-08-05T13:11:25.458Z,19.39
2022-08-05T13:14:36.289Z,19.50
2022-08-05T13:17:08.315Z,19.51
2022-08-05T13:19:51.808Z,19.44
2022-08-05T13:22:29.590Z,19.46
2022-08-05T13:25:05.203Z,19.42
2022-08-05T13:27:35.605Z,19.42
2022-08-05T13:30:35.781Z,19.46
2022-08-05T13:32:57.541Z,19.51
2022-08-05T13:35:43.250Z,19.61
2022-08-05T13:38:28.328Z,19.61
2022-08-05T13:41:01.961Z,19.55
2022-08-05T13:43:43.368Z,19.62
2022-08-05T13:46:13.784Z,19.54
2022-08-05T13:48:57.993Z,19.48
2022-08-05T13:51:36.525Z,19.51
2022-08-05T13:54:11.866Z,19.40
2022-08-05T13:56:44.923Z,19.42
2022-08-05T13:59:27.461Z,19.46
2022-08-05T14:02:00.329Z,19.52
2022-08-05T14:04:57.184Z,19.53
2022-08-05T14:07:59.845Z,19.43
2022-08-05T14:10:28.052Z,19.45
2022-08-05T14:12:57.099Z,19.49
2022-08-05T14:16:06.161Z,19.39
2022-08-05T14:18:17.797Z,19.31
2022-08-05T14:20:47.999Z,19.29
2022-08-05T14:23:23.432Z,19.16
2022-08-05T14:25:54.127Z,19.10
2022-08-05T14:28:26.245Z,19.13
2022-08-05T14:30:54.317Z,19.04
2022-08-05T14:33:22.612Z,19.15
2022-08-05T14:35:51.783Z,19.16
2022-08-05T14:38:31.788Z,19.13
2022-08-05T14:41:01.369Z,19.18
2022-08-05T14:43:59.629Z,19.22
2022-08-05T14:46:14.526Z,19.22
2022-08-05T14:48:41.468Z,19.25
2022-08-05T14:51:09.365Z,19.48
2022-08-05T14:53:44.662Z,19.56
2022-08-05T14:56:11.871Z,19.52
2022-08-05T14:58:47.610Z,19.65
2022-08-05T15:01:47.105Z,19.67
2022-08-05T15:04:11.515Z,19.77
2022-08-05T15:06:38.879Z,19.69
2022-08-05T15:09:07.156Z,19.95
2022-08-05T15:11:51.885Z,20.07
2022-08-05T15:14:35.862Z,20.02
2022-08-05T15:17:09.962Z,20.04
2022-08-05T15:19:55.453Z,19.95
2022-08-05T15:22:22.202Z,20.09
2022-08-05T15:24:54.220Z,20.10
2022-08-05T15:27:20.763Z,19.96
2022-08-05T15:29:47.366Z,20.04
2022-08-05T15:32:16.458Z,20.02
2022-08-05T15:34:43.352Z,20.10
2022-08-05T15:37:14.707Z,20.03
2022-08-05T15:41:04.793Z,19.88
2022-08-05T15:42:56.641Z,19.98
2022-08-05T15:45:16.869Z,20.17
2022-08-05T15:47:45.854Z,20.17
2022-08-05T15:50:15.234Z,20.19
2022-08-05T15:52:53.912Z,20.31
2022-08-05T15:55:25.094Z,20.12
2022-08-05T15:58:08.729Z,20.15
2022-08-05T16:00:50.970Z,20.16
2022-08-05T16:03:21.961Z,20.03
2022-08-05T16:05:52.584Z,20.04
2022-08-05T16:08:19.407Z,20.21
2022-08-05T16:10:46.070Z,20.21
2022-08-05T16:13:19.319Z,20.16
2022-08-05T16:15:51.808Z,20.22
2022-08-05T16:18:18.765Z,20.16
2022-08-05T16:20:46.313Z,20.02
2022-08-05T16:23:12.946Z,19.93
2022-08-05T16:25:40.096Z,20.07
2022-08-05T16:28:09.811Z,20.10
2022-08-05T16:30:37.714Z,20.43
2022-08-05T16:33:04.431Z,20.49
2022-08-05T16:35:33.777Z,20.46
2022-08-05T16:38:23.969Z,20.62
2022-08-05T16:40:59.527Z,20.54
2022-08-05T16:43:33.191Z,20.48
2022-08-05T16:46:05.335Z,20.44
2022-08-05T16:48:35.439Z,20.48
2022-08-05T16:51:02.568Z,20.50
2022-08-05T16:54:04.955Z,20.35
2022-08-05T16:56:22.731Z,20.38
2022-08-05T16:58:50.284Z,20.21
2022-08-05T17:01:17.007Z,20.20
2022-08-05T17:03:45.690Z,20.11
2022-08-05T17:06:12.854Z,20.13
2022-08-05T17:08:53.061Z,20.09
2022-08-05T17:11:20.378Z,20.21
2022-08-05T17:13:50.798Z,20.25
2022-08-05T17:16:32.782Z,20.19
2022-08-05T17:19:00.862Z,20.29
2022-08-05T17:21:35.458Z,20.15
2022-08-05T17:24:05.887Z,20.09
2022-08-05T17:26:47.148Z,20.10
2022-08-05T17:29:14.453Z,20.03
2022-08-05T17:31:41.258Z,20.00
2022-08-05T17:34:30.138Z,19.94
2022-08-05T17:37:00.151Z,19.87
2022-08-05T17:39:34.108Z,19.90
2022-08-05T17:42:18.439Z,19.85
2022-08-05T17:44:50.428Z,19.80
2022-08-05T17:47:21.994Z,19.79
2022-08-05T17:49:59.597Z,19.76
2022-08-05T17:52:31.050Z,19.82
2022-08-05T17:54:57.842Z,19.87
2022-08-05T17:57:24.522Z,19.88
2022-08-05T18:00:04.805Z,19.85
2022-08-05T18:02:34.093Z,19.84
2022-08-05T18:05:07.649Z,19.77
2022-08-05T18:07:41.924Z,19.78
2022-08-05T18:10:11.591Z,19.76
2022-08-05T18:12:47.451Z,19.78
2022-08-05T18:15:14.250Z,19.73
2022-08-05T18:17:58.994Z,19.77
2022-08-05T18:20:29.208Z,19.70
2022-08-05T18:22:58.709Z,19.74
2022-08-05T18:25:32.900Z,19.77
2022-08-05T18:27:59.950Z,19.77
2022-08-05T18:30:33.122Z,19.70
2022-08-05T18:33:00.341Z,19.65
2022-08-05T18:36:00.553Z,19.62
2022-08-05T18:38:16.571Z,19.62
2022-08-05T18:41:58.150Z,19.67
2022-08-05T18:43:38.118Z,19.62
2022-08-05T18:46:09.736Z,19.56
2022-08-05T18:48:41.322Z,19.63
2022-08-05T18:52:06.205Z,19.63
2022-08-05T18:54:14.059Z,19.64
2022-08-05T18:56:40.646Z,19.50
2022-08-05T18:59:43.586Z,19.45
2022-08-05T19:01:56.830Z,19.50
2022-08-05T19:04:24.519Z,19.51
2022-08-05T19:06:51.635Z,19.37
2022-08-05T19:09:20.303Z,19.21
2022-08-05T19:12:00.262Z,19.29
2022-08-05T19:14:59.517Z,19.22
2022-08-05T19:17:15.326Z,19.14
2022-08-05T19:19:46.875Z,19.12
2022-08-05T19:22:17.170Z,19.09
2022-08-05T19:24:54.366Z,19.14
2022-08-05T19:27:24.101Z,19.08
2022-08-05T19:29:57.113Z,19.11
2022-08-05T19:32:26.203Z,19.09
2022-08-05T19:34:55.207Z,19.10
2022-08-05T19:37:29.761Z,19.07
2022-08-05T19:40:02.140Z,18.89
2022-08-05T19:42:35.424Z,18.78
2022-08-05T19:45:06.027Z,18.73
2022-08-05T19:47:33.975Z,18.67
2022-08-05T19:50:01.115Z,18.61
2022-08-05T19:52:30.857Z,18.54
2022-08-05T19:55:00.450Z,18.52
2022-08-05T19:57:47.428Z,18.48
2022-08-05T20:00:20.752Z,18.39
2022-08-05T20:02:47.494Z,18.39
2022-08-05T20:05:16.613Z,18.32
2022-08-05T20:07:57.804Z,18.28
2022-08-05T20:10:25.614Z,18.18
2022-08-05T20:12:52.405Z,18.18
2022-08-05T20:15:48.043Z,18.08
2022-08-05T20:18:32.636Z,18.00
2022-08-05T20:21:00.064Z,18.01
2022-08-05T20:23:39.620Z,18.01
2022-08-05T20:26:16.340Z,17.93
2022-08-05T20:28:45.692Z,17.92
2022-08-05T20:31:12.778Z,17.86
2022-08-05T20:33:42.302Z,17.75
2022-08-05T20:36:10.189Z,17.68
2022-08-05T20:38:38.138Z,17.74
2022-08-05T20:41:24.259Z,17.77
2022-08-05T20:43:59.208Z,17.80
2022-08-05T20:46:29.421Z,17.70
2022-08-05T20:48:56.238Z,17.62
2022-08-05T20:51:25.792Z,17.46
2022-08-05T20:54:01.275Z,17.53
2022-08-05T20:56:31.870Z,17.66
2022-08-05T20:59:14.068Z,17.73
2022-08-05T21:01:51.656Z,17.64
2022-08-05T21:04:22.362Z,17.46
2022-08-05T21:06:53.868Z,17.32
2022-08-05T21:09:26.040Z,17.25
2022-08-05T21:12:09.703Z,17.29
2022-08-05T21:14:38.725Z,17.33
2022-08-05T21:17:06.102Z,17.42
2022-08-05T21:19:47.288Z,17.39
2022-08-05T21:22:14.659Z,17.35
2022-08-05T21:24:48.742Z,17.25
2022-08-05T21:27:16.021Z,17.07
2022-08-05T21:29:43.436Z,16.97
2022-08-05T21:32:18.401Z,16.99
2022-08-05T21:34:55.953Z,17.07
2022-08-05T21:37:33.434Z,16.87
2022-08-05T21:40:05.745Z,16.94
2022-08-05T21:42:44.319Z,17.03
2022-08-05T21:45:11.666Z,17.23
2022-08-05T21:47:57.111Z,17.30
2022-08-05T21:50:28.014Z,17.35
2022-08-05T21:52:58.878Z,17.31
2022-08-05T21:56:01.562Z,17.29
2022-08-05T21:58:17.509Z,17.31
2022-08-05T22:00:51.269Z,17.07
2022-08-05T22:03:48.711Z,16.98
2022-08-05T22:06:13.318Z,17.00
2022-08-05T22:08:42.613Z,16.88
2022-08-05T22:11:12.050Z,16.97
2022-08-05T22:14:32.558Z,17.07
2022-08-05T22:16:50.861Z,16.81
2022-08-05T22:20:01.229Z,16.75
2022-08-05T22:22:04.927Z,16.80
2022-08-05T22:24:52.366Z,16.77
2022-08-05T22:28:09.415Z,16.78
2022-08-05T22:30:25.002Z,16.92
2022-08-05T22:32:59.116Z,17.05
2022-08-05T22:35:25.899Z,16.88
2022-08-05T22:37:59.592Z,16.92
2022-08-05T22:40:27.087Z,16.93
2022-08-05T22:42:59.806Z,16.81
2022-08-05T22:45:26.958Z,16.69
2022-08-05T22:47:57.546Z,16.76
2022-08-05T22:50:26.865Z,16.74
2022-08-05T22:52:58.224Z,16.64
2022-08-05T22:55:25.930Z,16.61
2022-08-05T22:57:55.026Z,16.52
2022-08-05T23:00:23.674Z,16.50
2022-08-05T23:02:53.149Z,16.61
2022-08-05T23:05:21.970Z,16.48
2022-08-05T23:07:52.558Z,16.40
2022-08-05T23:10:20.830Z,16.28
2022-08-05T23:12:51.244Z,16.31
2022-08-05T23:15:18.451Z,16.36
2022-08-05T23:18:01.376Z,16.17
2022-08-05T23:20:31.069Z,16.24
2022-08-05T23:22:58.663Z,16.17
2022-08-05T23:25:51.955Z,16.25
2022-08-05T23:28:13.090Z,16.15
2022-08-05T23:30:43.470Z,16.08
2022-08-05T23:33:16.470Z,16.00
2022-08-05T23:35:50.179Z,15.98
2022-08-05T23:38:20.030Z,15.94
2022-08-05T23:40:50.584Z,15.85
2022-08-05T23:43:25.815Z,15.82
2022-08-05T23:46:05.317Z,15.82
2022-08-05T23:49:00.746Z,15.82
2022-08-05T23:51:53.940Z,15.91
2022-08-05T23:54:36.471Z,15.90
2022-08-05T23:57:06.950Z,15.91
